Time;durP1;ratioP1;P1;durP2;ratioP2;P2;SDS_P1;SDS_P2;PMS_P1;PMS_P2;Temp;Humidity;BMP_temperature;BMP_pressure;BME280_temperature;BME280_humidity;BME280_pressure;Samples;Min_cycle;Max_cycle;Signal;HPM_P1;HPM_P2
2021/06/24 00:00:55;;;;;;;16.10;6.75;;;16.70;75.10;;;;;;5075547;28;20031;-36
2021/06/24 00:03:25;;;;;;;12.32;7.45;;;16.70;75.10;;;;;;5093608;28;20031;-41
2021/06/24 00:05:50;;;;;;;13.15;6.15;;;16.70;75.00;;;;;;5093174;28;20031;-37
2021/06/24 00:08:16;;;;;;;11.82;6.03;;;16.60;75.30;;;;;;5093507;28;20422;-37
2021/06/24 00:10:43;;;;;;;7.05;5.40;;;16.50;75.60;;;;;;5094009;28;20103;-38
2021/06/24 00:13:09;;;;;;;9.98;6.20;;;16.50;75.70;;;;;;5094016;28;20032;-37
2021/06/24 00:15:36;;;;;;;8.63;5.53;;;16.50;75.90;;;;;;5093683;28;20107;-37
2021/06/24 00:18:03;;;;;;;12.40;7.25;;;16.50;75.80;;;;;;5093746;28;20025;-41
2021/06/24 00:20:28;;;;;;;10.90;6.28;;;16.50;75.80;;;;;;5093591;28;20051;-37
2021/06/24 00:22:55;;;;;;;9.35;6.10;;;16.60;75.50;;;;;;5093957;28;20024;-37
2021/06/24 00:25:21;;;;;;;8.52;6.32;;;16.50;75.70;;;;;;5093449;28;20032;-37
2021/06/24 00:27:46;;;;;;;13.82;6.78;;;16.60;75.90;;;;;;5093618;28;20529;-37
2021/06/24 00:30:13;;;;;;;12.55;6.53;;;16.60;75.80;;;;;;5093439;28;20099;-37
2021/06/24 00:32:40;;;;;;;11.60;6.07;;;16.60;75.50;;;;;;5093159;28;20062;-37
2021/06/24 00:35:06;;;;;;;14.70;7.80;;;16.50;76.00;;;;;;5093324;28;20024;-37
2021/06/24 00:37:33;;;;;;;8.80;6.65;;;16.40;76.40;;;;;;5093564;28;20024;-38
2021/06/24 00:39:59;;;;;;;11.80;7.47;;;16.40;76.60;;;;;;5093654;28;20016;-37
2021/06/24 00:42:29;;;;;;;13.98;6.82;;;16.40;76.40;;;;;;5093990;28;20016;-36
2021/06/24 00:44:55;;;;;;;14.50;7.82;;;16.40;76.50;;;;;;5094219;28;20024;-37
2021/06/24 00:47:21;;;;;;;11.43;6.70;;;16.40;76.50;;;;;;5093858;28;20067;-37
2021/06/24 00:49:47;;;;;;;13.13;6.97;;;16.20;77.20;;;;;;5094340;28;20032;-37
2021/06/24 00:52:12;;;;;;;14.98;7.35;;;16.30;76.90;;;;;;5093374;28;20031;-37
2021/06/24 00:54:38;;;;;;;11.77;7.72;;;16.30;77.00;;;;;;5093040;28;20045;-36
2021/06/24 00:57:06;;;;;;;17.58;8.32;;;16.40;76.70;;;;;;5093113;28;20024;-37
2021/06/24 00:59:33;;;;;;;10.52;6.63;;;16.40;76.90;;;;;;5093363;28;20030;-37
2021/06/24 01:01:59;;;;;;;11.65;7.30;;;16.30;76.80;;;;;;5093212;28;20517;-37
2021/06/24 01:04:24;;;;;;;17.58;7.63;;;16.30;77.00;;;;;;5093196;28;20024;-37
2021/06/24 01:06:51;;;;;;;10.93;7.65;;;16.30;77.10;;;;;;5093003;28;20111;-36
2021/06/24 01:09:17;;;;;;;23.13;10.40;;;16.40;77.10;;;;;;5093077;28;20020;-36
2021/06/24 01:11:43;;;;;;;12.70;7.13;;;16.50;76.50;;;;;;5093263;28;20025;-36
2021/06/24 01:14:09;;;;;;;10.27;7.30;;;16.40;76.80;;;;;;5093145;28;20028;-37
2021/06/24 01:16:39;;;;;;;13.25;7.07;;;16.40;77.00;;;;;;5095415;28;20577;-37
2021/06/24 01:19:06;;;;;;;13.83;8.70;;;16.50;77.00;;;;;;5096746;28;20414;-37
2021/06/24 01:21:32;;;;;;;12.48;7.32;;;16.50;76.70;;;;;;5096610;28;20055;-37
2021/06/24 01:24:01;;;;;;;17.95;8.38;;;16.40;76.90;;;;;;5097287;28;20024;-37
2021/06/24 01:26:27;;;;;;;15.15;9.07;;;16.30;77.30;;;;;;5096916;28;20020;-38
2021/06/24 01:28:53;;;;;;;12.93;8.93;;;16.40;77.00;;;;;;5096729;28;20380;-37
2021/06/24 01:31:20;;;;;;;13.80;8.55;;;16.30;77.30;;;;;;5096735;28;20017;-37
2021/06/24 01:33:46;;;;;;;16.55;9.40;;;16.30;77.40;;;;;;5096621;28;20059;-37
2021/06/24 01:36:13;;;;;;;12.15;8.20;;;16.30;77.50;;;;;;5096674;28;20406;-37
2021/06/24 01:38:41;;;;;;;16.90;8.95;;;16.40;77.10;;;;;;5096278;28;20027;-37
2021/06/24 01:41:10;;;;;;;11.75;9.30;;;16.30;77.60;;;;;;5096245;28;20039;-38
2021/06/24 01:43:35;;;;;;;18.70;9.50;;;16.30;77.70;;;;;;5078068;28;20036;-37
2021/06/24 01:46:01;;;;;;;14.00;10.55;;;16.20;78.00;;;;;;5096141;28;20046;-37
2021/06/24 01:48:28;;;;;;;19.58;9.40;;;16.10;78.60;;;;;;5096388;28;20020;-37
2021/06/24 01:50:55;;;;;;;19.75;8.80;;;16.20;78.50;;;;;;5096028;28;20103;-37
2021/06/24 01:53:21;;;;;;;16.67;9.52;;;16.30;78.00;;;;;;5096465;28;20422;-37
2021/06/24 01:55:47;;;;;;;15.00;9.00;;;16.20;78.20;;;;;;5096060;28;20028;-37
2021/06/24 01:58:16;;;;;;;12.73;9.93;;;16.30;78.20;;;;;;5096886;28;20012;-36
2021/06/24 02:00:44;;;;;;;21.70;9.60;;;16.30;78.20;;;;;;5095902;28;20361;-37
2021/06/24 02:03:13;;;;;;;14.38;8.80;;;16.20;78.50;;;;;;5077813;28;20125;-36
2021/06/24 02:05:40;;;;;;;18.05;8.52;;;16.20;78.70;;;;;;5096200;28;20399;-36
2021/06/24 02:08:13;;;;;;;13.75;8.43;;;16.20;78.40;;;;;;5096040;28;20118;-37
2021/06/24 02:10:38;;;;;;;18.35;9.48;;;16.10;79.10;;;;;;5095934;28;20024;-37
2021/06/24 02:13:04;;;;;;;13.10;8.43;;;16.10;79.10;;;;;;5095810;28;20024;-37
2021/06/24 02:15:30;;;;;;;13.77;9.95;;;16.20;78.80;;;;;;5095877;28;20063;-37
2021/06/24 02:17:55;;;;;;;21.48;10.10;;;16.10;78.80;;;;;;5095892;28;20103;-36
2021/06/24 02:20:21;;;;;;;15.40;9.93;;;16.10;79.00;;;;;;5095622;28;20020;-37
2021/06/24 02:22:47;;;;;;;24.45;10.43;;;16.20;79.10;;;;;;5095488;28;20024;-37
2021/06/24 02:25:13;;;;;;;11.85;9.45;;;16.20;78.70;;;;;;5095613;28;20467;-37
2021/06/24 02:27:40;;;;;;;16.83;10.50;;;16.20;79.10;;;;;;5094565;28;20067;-36
2021/06/24 02:30:07;;;;;;;18.88;10.32;;;16.20;79.10;;;;;;5077616;28;20478;-37
2021/06/24 02:32:32;;;;;;;17.77;10.60;;;16.00;79.40;;;;;;5094968;28;20098;-36
2021/06/24 02:34:58;;;;;;;18.48;9.85;;;16.00;79.60;;;;;;5095453;28;20028;-36
2021/06/24 02:37:24;;;;;;;13.52;10.13;;;15.90;80.10;;;;;;5077259;28;20020;-36
2021/06/24 02:39:50;;;;;;;15.18;10.20;;;15.80;80.10;;;;;;5093888;28;20016;-36
2021/06/24 02:42:16;;;;;;;17.23;10.77;;;15.90;79.90;;;;;;5095421;28;20107;-36
2021/06/24 02:44:42;;;;;;;14.45;9.95;;;15.90;80.00;;;;;;5095269;28;20088;-36
2021/06/24 02:47:08;;;;;;;13.05;10.23;;;15.90;80.10;;;;;;5094988;28;20539;-37
2021/06/24 02:49:34;;;;;;;15.52;10.35;;;15.90;80.30;;;;;;5095053;28;20024;-43
2021/06/24 02:52:00;;;;;;;17.92;11.15;;;16.00;80.10;;;;;;5095176;28;20078;-37
2021/06/24 02:54:25;;;;;;;19.13;10.48;;;15.80;80.30;;;;;;5094873;28;20399;-37
2021/06/24 02:56:51;;;;;;;15.52;10.18;;;15.90;80.30;;;;;;5095010;28;20081;-37
2021/06/24 02:59:17;;;;;;;18.67;10.63;;;15.80;80.50;;;;;;5094722;28;20103;-45
2021/06/24 03:01:42;;;;;;;17.50;10.80;;;15.80;80.80;;;;;;5094957;28;20028;-42
2021/06/24 03:04:08;;;;;;;17.20;10.82;;;15.80;81.00;;;;;;5095956;28;20359;-37
2021/06/24 03:06:35;;;;;;;16.95;10.27;;;15.80;81.00;;;;;;5094879;28;20031;-37
2021/06/24 03:09:05;;;;;;;19.60;11.82;;;15.80;80.90;;;;;;5094510;28;20020;-37
2021/06/24 03:11:32;;;;;;;22.08;11.82;;;15.90;80.50;;;;;;5094897;28;20081;-37
2021/06/24 03:13:58;;;;;;;20.02;11.45;;;15.90;80.60;;;;;;5094667;28;20057;-37
2021/06/24 03:16:24;;;;;;;19.60;11.35;;;16.00;80.30;;;;;;5076286;28;20024;-36
2021/06/24 03:18:50;;;;;;;16.83;10.68;;;15.80;80.90;;;;;;5094367;28;20467;-37
2021/06/24 03:21:17;;;;;;;18.23;10.48;;;15.80;81.20;;;;;;5094243;28;20030;-37
2021/06/24 03:23:43;;;;;;;17.23;11.38;;;15.70;81.40;;;;;;5094513;28;20024;-36
2021/06/24 03:26:08;;;;;;;16.90;11.60;;;15.70;81.60;;;;;;5094540;28;20089;-36
2021/06/24 03:28:34;;;;;;;21.25;10.48;;;15.70;81.60;;;;;;5094213;28;20067;-36
2021/06/24 03:30:59;;;;;;;20.35;10.95;;;15.60;81.80;;;;;;5075931;28;20024;-37
2021/06/24 03:33:25;;;;;;;18.67;11.18;;;15.70;81.80;;;;;;5093975;28;20048;-36
2021/06/24 03:35:51;;;;;;;20.77;11.05;;;15.70;81.80;;;;;;5094387;28;20028;-38
2021/06/24 03:38:17;;;;;;;22.15;12.02;;;15.60;81.80;;;;;;5075805;28;20016;-37
2021/06/24 03:40:43;;;;;;;22.33;11.18;;;15.60;82.10;;;;;;5094266;28;20016;-37
2021/06/24 03:43:08;;;;;;;20.35;13.30;;;15.50;82.20;;;;;;5094695;28;20016;-37
2021/06/24 03:45:34;;;;;;;22.92;11.35;;;15.60;82.30;;;;;;5093958;28;20392;-37
2021/06/24 03:48:00;;;;;;;23.98;13.43;;;15.60;82.20;;;;;;5094256;28;20020;-37
2021/06/24 03:50:26;;;;;;;19.10;11.10;;;15.70;81.70;;;;;;5075692;28;20093;-38
2021/06/24 03:52:51;;;;;;;22.13;12.75;;;15.60;82.30;;;;;;5093880;28;20028;-36
2021/06/24 03:55:19;;;;;;;20.65;11.13;;;15.60;82.20;;;;;;5093691;28;20586;-37
2021/06/24 03:57:45;;;;;;;18.42;11.05;;;15.70;81.90;;;;;;5094040;28;20387;-36
2021/06/24 04:00:12;;;;;;;20.85;11.63;;;15.70;81.90;;;;;;5093933;28;20024;-37
2021/06/24 04:02:37;;;;;;;17.55;11.82;;;15.70;82.10;;;;;;5093895;28;20049;-37
2021/06/24 04:05:03;;;;;;;24.10;13.52;;;15.60;82.00;;;;;;5093874;28;20024;-37
2021/06/24 04:07:29;;;;;;;21.80;11.32;;;15.60;82.40;;;;;;5093527;28;20078;-37
2021/06/24 04:09:54;;;;;;;25.17;12.13;;;15.60;82.20;;;;;;5093846;28;20027;-37
2021/06/24 04:12:20;;;;;;;22.55;13.45;;;15.80;81.40;;;;;;5093489;28;20028;-37
2021/06/24 04:14:46;;;;;;;20.25;11.80;;;15.80;81.30;;;;;;5093757;28;20039;-37
2021/06/24 04:17:11;;;;;;;21.15;12.38;;;15.70;82.00;;;;;;5075473;28;20154;-37
2021/06/24 04:19:37;;;;;;;29.45;12.73;;;15.80;81.20;;;;;;5093538;28;20028;-38
2021/06/24 04:22:03;;;;;;;16.00;12.00;;;15.70;81.60;;;;;;5093458;28;20024;-37
2021/06/24 04:24:29;;;;;;;22.98;12.45;;;15.70;81.50;;;;;;5093445;28;20024;-37
2021/06/24 04:26:54;;;;;;;19.90;12.93;;;15.70;81.40;;;;;;5093720;28;20028;-37
2021/06/24 04:29:20;;;;;;;24.77;12.77;;;15.70;81.50;;;;;;5093776;28;20024;-36
2021/06/24 04:31:46;;;;;;;20.75;14.30;;;15.80;81.50;;;;;;5093123;28;20048;-37
2021/06/24 04:34:11;;;;;;;21.17;13.10;;;15.70;81.60;;;;;;5093560;28;20418;-37
2021/06/24 04:36:43;;;;;;;15.38;12.05;;;15.70;81.40;;;;;;5093652;28;20150;-37
2021/06/24 04:39:09;;;;;;;21.02;12.80;;;15.80;81.30;;;;;;5093478;28;20035;-36
2021/06/24 04:41:34;;;;;;;19.08;13.20;;;15.80;81.30;;;;;;5075297;28;20430;-37
2021/06/24 04:44:00;;;;;;;17.33;12.60;;;15.80;81.00;;;;;;5093451;28;20028;-36
2021/06/24 04:46:26;;;;;;;20.52;11.38;;;15.80;81.10;;;;;;5093395;28;20082;-37
2021/06/24 04:48:51;;;;;;;21.85;13.23;;;15.80;81.30;;;;;;5093194;28;20062;-37
2021/06/24 04:51:17;;;;;;;16.23;11.93;;;15.80;81.20;;;;;;5095052;28;20479;-36
2021/06/24 04:53:42;;;;;;;22.60;12.63;;;15.80;81.10;;;;;;5097297;28;20020;-37
2021/06/24 04:56:08;;;;;;;18.38;12.40;;;15.80;81.00;;;;;;5097133;28;20027;-37
2021/06/24 04:58:34;;;;;;;23.38;13.45;;;15.70;81.30;;;;;;5097157;28;20023;-37
2021/06/24 05:01:00;;;;;;;17.10;12.77;;;15.70;81.30;;;;;;5097149;28;20032;-36
2021/06/24 05:03:26;;;;;;;19.10;12.18;;;15.60;81.70;;;;;;5096990;28;20129;-37
2021/06/24 05:05:51;;;;;;;19.23;11.85;;;15.80;81.20;;;;;;5096808;28;20103;-37
2021/06/24 05:08:20;;;;;;;25.30;13.65;;;15.70;81.20;;;;;;5097640;28;20375;-37
2021/06/24 05:10:46;;;;;;;17.45;11.70;;;15.70;81.30;;;;;;5096938;28;20054;-37
2021/06/24 05:13:12;;;;;;;26.08;13.77;;;15.80;80.90;;;;;;5097135;28;20107;-37
2021/06/24 05:15:43;;;;;;;22.55;13.23;;;15.80;81.10;;;;;;5096896;28;20114;-36
2021/06/24 05:18:09;;;;;;;22.02;13.23;;;15.80;80.50;;;;;;5078909;28;20031;-37
2021/06/24 05:20:38;;;;;;;26.20;13.05;;;15.90;80.20;;;;;;5078106;28;20059;-37
2021/06/24 05:23:04;;;;;;;16.20;12.43;;;15.90;80.10;;;;;;5096727;28;20020;-37
2021/06/24 05:25:29;;;;;;;20.00;12.88;;;15.80;80.60;;;;;;5078595;28;20529;-37
2021/06/24 05:27:55;;;;;;;21.70;12.32;;;15.90;80.10;;;;;;5078311;28;20131;-37
2021/06/24 05:30:21;;;;;;;21.75;13.20;;;15.90;80.00;;;;;;5096812;28;20020;-37
2021/06/24 05:32:47;;;;;;;20.50;11.52;;;16.00;79.80;;;;;;5096352;28;20399;-37
2021/06/24 05:35:12;;;;;;;18.48;12.30;;;16.10;79.50;;;;;;5096058;28;20024;-37
2021/06/24 05:37:38;;;;;;;22.17;12.88;;;16.20;79.30;;;;;;5078473;28;20479;-37
2021/06/24 05:40:04;;;;;;;25.80;14.18;;;16.20;79.50;;;;;;5096266;28;20020;-37
2021/06/24 05:42:30;;;;;;;18.42;11.30;;;16.30;78.50;;;;;;5095936;28;20389;-37
2021/06/24 05:44:55;;;;;;;27.55;14.70;;;16.30;78.60;;;;;;5077935;28;20032;-37
2021/06/24 05:47:24;;;;;;;23.80;12.20;;;16.40;78.30;;;;;;5096484;28;20034;-37
2021/06/24 05:49:49;;;;;;;26.83;12.18;;;16.50;77.70;;;;;;5080310;28;20111;-37
2021/06/24 05:52:15;;;;;;;18.02;11.93;;;16.50;78.40;;;;;;5096014;28;20071;-37
2021/06/24 05:54:41;;;;;;;24.38;12.38;;;16.80;77.20;;;;;;5095988;28;20455;-37
2021/06/24 05:57:06;;;;;;;25.00;11.85;;;16.70;77.40;;;;;;5095545;28;20507;-39
2021/06/24 05:59:32;;;;;;;20.48;11.55;;;16.50;77.60;;;;;;5095847;28;20107;-37
2021/06/24 06:01:58;;;;;;;21.33;11.90;;;16.50;77.60;;;;;;5077567;28;20020;-36
2021/06/24 06:04:24;;;;;;;22.58;12.27;;;16.40;77.90;;;;;;5095948;28;20031;-36
2021/06/24 06:06:49;;;;;;;20.92;12.85;;;16.20;78.70;;;;;;5095659;28;20496;-37
2021/06/24 06:09:15;;;;;;;37.95;14.93;;;16.40;78.30;;;;;;5095354;28;20024;-36
2021/06/24 06:11:43;;;;;;;22.20;12.50;;;16.50;77.90;;;;;;5095678;28;20032;-37
2021/06/24 06:14:09;;;;;;;18.15;12.18;;;16.70;77.60;;;;;;5095345;28;20035;-36
2021/06/24 06:16:35;;;;;;;23.08;13.52;;;16.60;77.90;;;;;;5095363;28;20020;-37
2021/06/24 06:19:01;;;;;;;18.67;12.65;;;16.60;77.60;;;;;;5095509;28;20464;-37
2021/06/24 06:21:29;;;;;;;22.20;13.30;;;16.70;77.40;;;;;;5095415;28;20107;-37
2021/06/24 06:23:56;;;;;;;19.00;11.98;;;16.70;77.40;;;;;;5076851;28;20031;-37
2021/06/24 06:26:21;;;;;;;19.40;11.65;;;16.60;77.60;;;;;;5095283;28;20451;-37
2021/06/24 06:28:47;;;;;;;22.10;11.32;;;16.80;76.60;;;;;;5094889;28;20016;-36
2021/06/24 06:31:13;;;;;;;20.08;11.95;;;16.70;77.30;;;;;;5094874;28;20456;-37
2021/06/24 06:33:39;;;;;;;21.10;12.45;;;16.70;77.30;;;;;;5095388;28;20032;-37
2021/06/24 06:36:04;;;;;;;23.83;12.23;;;16.80;77.30;;;;;;5095063;28;20039;-36
2021/06/24 06:38:30;;;;;;;25.67;14.18;;;16.80;76.50;;;;;;5094995;28;20048;-37
2021/06/24 06:40:56;;;;;;;24.40;13.55;;;16.80;76.90;;;;;;5094813;28;20432;-51
2021/06/24 06:43:21;;;;;;;22.38;13.32;;;16.90;76.50;;;;;;5094795;28;20490;-36
2021/06/24 06:45:47;;;;;;;21.42;11.85;;;17.00;75.90;;;;;;5094757;28;20055;-38
2021/06/24 06:48:13;;;;;;;20.30;12.50;;;17.10;76.20;;;;;;5095264;28;20169;-36
2021/06/24 06:50:40;;;;;;;26.70;14.02;;;17.20;75.10;;;;;;5076187;28;20527;-34
2021/06/24 06:53:06;;;;;;;25.30;12.80;;;17.40;75.30;;;;;;5093708;28;20032;-35
2021/06/24 06:55:33;;;;;;;20.08;12.05;;;17.60;73.80;;;;;;5093827;28;20028;-37
2021/06/24 06:57:59;;;;;;;26.25;14.25;;;17.60;74.10;;;;;;5059501;28;20418;-36
2021/06/24 07:00:25;;;;;;;22.25;13.10;;;17.80;73.30;;;;;;5094653;28;20391;-36
2021/06/24 07:02:52;;;;;;;24.27;12.77;;;18.00;72.90;;;;;;5094242;28;20095;-37
2021/06/24 07:05:18;;;;;;;22.30;13.95;;;18.10;72.50;;;;;;5094611;28;20435;-37
2021/06/24 07:07:44;;;;;;;20.75;11.82;;;17.90;72.40;;;;;;5094976;28;20028;-36
2021/06/24 07:10:10;;;;;;;21.58;11.90;;;17.80;72.90;;;;;;5094236;28;20031;-36
2021/06/24 07:12:36;;;;;;;19.52;11.75;;;17.60;73.70;;;;;;5092725;28;20031;-36
2021/06/24 07:15:03;;;;;;;22.45;12.77;;;17.50;74.40;;;;;;5093364;28;20032;-36
2021/06/24 07:17:28;;;;;;;24.95;13.73;;;17.50;74.60;;;;;;5094301;28;20073;-37
2021/06/24 07:19:54;;;;;;;19.52;13.35;;;17.50;74.70;;;;;;5092698;28;20031;-38
2021/06/24 07:22:20;;;;;;;14.40;12.68;;;17.50;74.90;;;;;;5093868;28;20013;-37
2021/06/24 07:24:45;;;;;;;19.52;12.80;;;17.50;74.60;;;;;;5093909;28;20441;-38
2021/06/24 07:27:11;;;;;;;16.70;12.65;;;17.80;73.70;;;;;;5093747;28;20387;-36
2021/06/24 07:29:37;;;;;;;17.65;12.05;;;18.00;73.10;;;;;;5094538;28;20020;-36
2021/06/24 07:32:03;;;;;;;23.95;12.48;;;18.10;72.40;;;;;;5094641;28;20380;-36
2021/06/24 07:34:29;;;;;;;20.63;12.88;;;17.90;72.80;;;;;;5075589;28;20434;-51
2021/06/24 07:36:55;;;;;;;18.58;12.07;;;17.90;73.10;;;;;;5093952;28;20024;-36
2021/06/24 07:39:20;;;;;;;16.40;11.70;;;18.30;72.10;;;;;;5093618;28;20092;-36
2021/06/24 07:41:46;;;;;;;17.90;11.98;;;18.40;71.30;;;;;;5093509;28;20027;-37
2021/06/24 07:44:11;;;;;;;20.30;12.13;;;18.20;71.40;;;;;;5094182;28;20034;-51
2021/06/24 07:46:37;;;;;;;20.90;12.98;;;18.00;72.30;;;;;;5093323;28;20111;-50
2021/06/24 07:49:04;;;;;;;22.65;14.68;;;17.80;72.90;;;;;;5094494;28;20144;-50
2021/06/24 07:51:30;;;;;;;18.58;11.73;;;17.90;73.30;;;;;;5094167;28;20084;-50
2021/06/24 07:53:56;;;;;;;21.80;12.93;;;18.10;72.60;;;;;;5094115;28;20035;-48
2021/06/24 07:56:22;;;;;;;15.05;12.38;;;18.20;72.40;;;;;;5094600;28;20535;-50
2021/06/24 07:58:51;;;;;;;21.35;13.50;;;18.10;72.10;;;;;;5075506;28;20490;-49
2021/06/24 08:01:16;;;;;;;22.35;11.75;;;18.20;72.60;;;;;;5075743;28;20024;-51
2021/06/24 08:03:42;;;;;;;18.00;12.85;;;18.30;71.50;;;;;;5075445;28;20016;-48
2021/06/24 08:06:08;;;;;;;18.02;12.18;;;18.60;71.30;;;;;;5075291;28;20051;-49
2021/06/24 08:08:34;;;;;;;15.95;11.55;;;19.10;69.70;;;;;;5093690;28;20099;-49
2021/06/24 08:11:00;;;;;;;22.77;12.57;;;19.50;67.50;;;;;;5093283;28;20103;-49
2021/06/24 08:13:27;;;;;;;19.40;11.90;;;19.20;68.90;;;;;;5093205;28;20192;-48
2021/06/24 08:15:54;;;;;;;19.42;11.95;;;19.40;67.80;;;;;;5058227;28;20113;-48
2021/06/24 08:18:20;;;;;;;18.75;11.63;;;19.40;68.30;;;;;;5093263;28;20028;-49
2021/06/24 08:20:46;;;;;;;14.70;10.95;;;19.60;67.80;;;;;;5092962;28;20020;-50
2021/06/24 08:23:12;;;;;;;17.65;9.95;;;19.80;67.00;;;;;;5074641;28;20027;-48
2021/06/24 08:25:37;;;;;;;16.48;10.05;;;20.20;65.70;;;;;;5093580;28;20028;-51
2021/06/24 08:28:04;;;;;;;15.48;9.80;;;20.20;65.40;;;;;;5097600;28;20024;-49
2021/06/24 08:30:30;;;;;;;20.20;10.38;;;20.40;64.80;;;;;;5097019;28;20122;-50
2021/06/24 08:32:56;;;;;;;14.18;9.75;;;21.30;62.40;;;;;;5097459;28;20440;-51
2021/06/24 08:35:22;;;;;;;21.85;10.75;;;21.40;60.60;;;;;;5096996;28;20024;-51
2021/06/24 08:37:47;;;;;;;12.63;9.00;;;20.70;63.00;;;;;;5078713;28;20020;-47
2021/06/24 08:40:14;;;;;;;16.20;10.35;;;20.40;63.50;;;;;;5096675;28;20069;-49
2021/06/24 08:42:41;;;;;;;17.90;10.20;;;20.00;65.20;;;;;;5096761;28;20036;-50
2021/06/24 08:45:08;;;;;;;12.75;9.75;;;19.60;66.60;;;;;;5097505;28;20020;-48
2021/06/24 08:47:41;;;;;;;13.85;8.77;;;20.40;65.40;;;;;;5098289;28;20087;-50
2021/06/24 08:50:09;;;;;;;14.73;8.30;;;21.80;60.40;;;;;;5097343;28;20051;-49
2021/06/24 08:52:35;;;;;;;18.40;8.15;;;22.80;56.40;;;;;;5078631;28;20475;-51
2021/06/24 08:55:02;;;;;;;9.88;7.68;;;22.40;56.90;;;;;;5096818;28;20167;-55
2021/06/24 08:57:29;;;;;;;10.77;7.15;;;22.80;56.40;;;;;;5079520;28;20081;-50
2021/06/24 08:59:56;;;;;;;17.00;7.78;;;23.10;54.80;;;;;;5080331;28;20066;-51
2021/06/24 09:02:50;;;;;;;13.07;7.72;;;23.50;54.00;;;;;;5096679;28;20047;-48
2021/06/24 09:05:18;;;;;;;14.68;7.75;;;24.00;52.50;;;;;;5096608;28;20032;-48
2021/06/24 09:07:54;;;;;;;11.77;7.50;;;23.80;51.80;;;;;;5096847;28;20530;-48
2021/06/24 09:10:24;;;;;;;15.60;8.52;;;23.30;53.70;;;;;;5096506;28;20039;-49
2021/06/24 09:12:56;;;;;;;12.43;7.57;;;23.70;52.80;;;;;;5096725;28;20028;-49
2021/06/24 09:15:33;;;;;;;11.48;8.07;;;22.90;54.50;;;;;;5096606;28;20031;-52
2021/06/24 09:17:59;;;;;;;19.75;10.48;;;22.50;55.20;;;;;;5096726;28;20035;-48
2021/06/24 09:20:25;;;;;;;16.25;8.25;;;22.70;55.30;;;;;;5096400;28;20479;-49
2021/06/24 09:23:16;;;;;;;17.88;9.30;;;22.50;56.80;;;;;;5097225;28;20544;-50
2021/06/24 09:25:49;;;;;;;15.77;9.02;;;23.20;54.50;;;;;;5097941;28;20476;-49
2021/06/24 09:28:18;;;;;;;16.42;9.00;;;23.40;52.30;;;;;;5096843;28;20024;-48
2021/06/24 09:30:45;;;;;;;21.70;8.27;;;22.60;56.00;;;;;;5098030;28;20069;-49
2021/06/24 09:33:13;;;;;;;14.05;8.48;;;23.30;54.00;;;;;;5078914;28;20043;-51
2021/06/24 09:35:41;;;;;;;15.73;9.82;;;23.40;53.50;;;;;;5096165;28;20059;-52
2021/06/24 09:38:09;;;;;;;17.08;9.50;;;22.20;56.00;;;;;;5095553;28;20020;-51
2021/06/24 09:40:46;;;;;;;16.55;9.63;;;21.80;57.80;;;;;;5077513;28;20043;-49
2021/06/24 09:43:36;;;;;;;10.40;8.93;;;21.30;59.70;;;;;;5095916;28;20476;-49
2021/06/24 09:46:20;;;;;;;13.43;9.33;;;21.80;58.80;;;;;;5077563;28;20047;-48
2021/06/24 09:48:59;;;;;;;13.65;9.35;;;21.80;58.30;;;;;;5095675;28;20114;-51
2021/06/24 09:51:28;;;;;;;12.52;8.43;;;21.90;58.30;;;;;;5098081;28;20032;-49
2021/06/24 09:53:55;;;;;;;11.38;7.88;;;22.30;56.10;;;;;;5096474;28;20028;-47
2021/06/24 09:56:32;;;;;;;16.02;10.15;;;23.00;54.40;;;;;;5077885;28;20529;-50
2021/06/24 09:59:00;;;;;;;17.27;9.02;;;23.00;54.60;;;;;;5100814;28;20479;-49
2021/06/24 10:01:31;;;;;;;10.30;8.82;;;23.30;53.50;;;;;;5078098;28;20695;-49
2021/06/24 10:03:58;;;;;;;12.35;9.13;;;22.80;54.10;;;;;;5095843;28;20016;-48
2021/06/24 10:06:25;;;;;;;14.00;8.90;;;22.40;55.60;;;;;;5096851;28;20027;-54
2021/06/24 10:08:51;;;;;;;17.65;9.73;;;22.70;55.70;;;;;;5077283;28;20028;-51
2021/06/24 10:11:17;;;;;;;9.68;8.07;;;23.80;51.40;;;;;;5095797;28;20031;-52
2021/06/24 10:13:43;;;;;;;15.32;8.50;;;24.80;49.80;;;;;;5095656;28;20042;-49
2021/06/24 10:16:11;;;;;;;13.93;8.38;;;24.40;50.00;;;;;;5095286;28;20028;-49
2021/06/24 10:18:39;;;;;;;13.65;9.27;;;23.00;53.70;;;;;;5095307;28;20062;-47
2021/06/24 10:21:05;;;;;;;10.75;8.57;;;22.50;54.90;;;;;;5095192;28;20054;-49
2021/06/24 10:23:31;;;;;;;12.65;8.68;;;22.30;56.20;;;;;;5095743;28;20036;-49
2021/06/24 10:25:57;;;;;;;12.75;8.57;;;22.20;55.70;;;;;;5095402;28;20055;-49
2021/06/24 10:28:23;;;;;;;10.55;8.45;;;22.00;56.10;;;;;;5095932;28;20020;-48
2021/06/24 10:30:49;;;;;;;14.70;9.70;;;22.70;55.20;;;;;;5094440;28;20031;-51
2021/06/24 10:33:16;;;;;;;13.57;9.60;;;23.60;52.90;;;;;;5094071;28;20059;-49
2021/06/24 10:35:47;;;;;;;11.70;10.27;;;22.70;55.10;;;;;;5095692;28;20074;-49
2021/06/24 10:38:13;;;;;;;14.57;10.27;;;22.50;55.50;;;;;;5095030;28;20403;-51
2021/06/24 10:40:41;;;;;;;16.40;10.45;;;22.20;56.80;;;;;;5095128;28;20016;-52
2021/06/24 10:43:16;;;;;;;13.00;9.02;;;22.20;57.30;;;;;;5094542;28;20020;-49
2021/06/24 10:45:44;;;;;;;13.05;9.77;;;22.80;56.00;;;;;;5095095;28;20045;-50
2021/06/24 10:48:31;;;;;;;11.07;9.90;;;22.80;54.30;;;;;;5093348;28;20448;-49
2021/06/24 10:51:01;;;;;;;13.25;9.43;;;23.00;53.80;;;;;;5095502;28;20460;-50
2021/06/24 10:53:28;;;;;;;14.70;9.20;;;23.20;53.90;;;;;;5095117;28;20024;-50
2021/06/24 10:55:59;;;;;;;15.50;10.18;;;23.00;53.90;;;;;;5096732;28;20110;-51
2021/06/24 10:58:27;;;;;;;13.13;10.32;;;23.40;52.40;;;;;;5095332;28;20080;-52
2021/06/24 11:00:54;;;;;;;16.15;11.20;;;23.20;53.20;;;;;;5100568;28;20466;-50
2021/06/24 11:03:46;;;;;;;13.15;9.40;;;23.50;53.10;;;;;;5081811;28;20472;-49
2021/06/24 11:06:19;;;;;;;15.45;11.30;;;23.60;51.40;;;;;;5098474;28;20491;-48
2021/06/24 11:08:45;;;;;;;13.05;11.57;;;23.30;52.80;;;;;;5059361;28;20472;-51
2021/06/24 11:11:12;;;;;;;18.63;11.20;;;23.40;52.50;;;;;;5093986;28;20029;-52
2021/06/24 11:13:41;;;;;;;13.25;10.43;;;23.20;52.30;;;;;;5096244;28;20482;-51
2021/06/24 11:16:27;;;;;;;15.52;9.65;;;22.30;54.20;;;;;;5093969;28;20039;-47
2021/06/24 11:18:57;;;;;;;12.50;10.15;;;22.10;55.80;;;;;;5094361;28;20070;-50
2021/06/24 11:21:28;;;;;;;15.87;9.67;;;22.80;55.20;;;;;;5094282;28;20023;-52
2021/06/24 11:24:06;;;;;;;14.23;9.57;;;22.80;53.90;;;;;;5076011;28;20016;-51
2021/06/24 11:26:32;;;;;;;12.50;9.90;;;23.10;52.90;;;;;;5094296;28;20032;-48
2021/06/24 11:34:27;;;;;;;12.13;8.45;;;22.50;54.90;;;;;;5076970;28;20020;-51
2021/06/24 11:36:55;;;;;;;12.50;7.50;;;22.70;55.80;;;;;;5094574;28;20079;-49
2021/06/24 11:39:29;;;;;;;12.70;7.70;;;22.50;53.90;;;;;;5093934;28;20066;-53
2021/06/24 11:41:58;;;;;;;9.88;7.53;;;22.80;53.70;;;;;;5094631;28;20028;-50
2021/06/24 11:44:40;;;;;;;15.05;9.05;;;23.30;52.50;;;;;;5094173;28;20099;-50
2021/06/24 11:47:11;;;;;;;13.57;7.95;;;23.40;51.40;;;;;;5093915;28;20042;-53
2021/06/24 12:03:19;;;;;;;7.88;7.05;;;22.60;52.90;;;;;;5093833;28;20111;-50
2021/06/24 12:05:52;;;;;;;12.45;8.68;;;22.90;52.40;;;;;;5094142;28;20050;-55
2021/06/24 12:08:26;;;;;;;15.15;7.53;;;23.20;51.50;;;;;;5093575;28;20031;-48
2021/06/24 12:11:11;;;;;;;12.05;8.10;;;22.80;53.30;;;;;;5093353;28;20121;-49
2021/06/24 12:13:43;;;;;;;10.73;7.30;;;23.00;52.90;;;;;;5095172;28;20036;-49
2021/06/24 12:16:20;;;;;;;16.48;8.55;;;23.00;52.90;;;;;;5105409;28;20036;-44
2021/06/24 12:18:51;;;;;;;12.25;7.30;;;22.70;53.70;;;;;;5094577;28;20456;-37
2021/06/24 12:21:17;;;;;;;13.75;7.50;;;22.50;54.60;;;;;;5074572;28;20020;-39
2021/06/24 12:23:47;;;;;;;10.98;7.35;;;22.20;55.60;;;;;;5094320;28;20126;-37
2021/06/24 12:26:15;;;;;;;10.20;6.75;;;22.00;56.40;;;;;;5092824;28;20058;-37
2021/06/24 12:28:42;;;;;;;9.00;6.97;;;22.30;55.60;;;;;;5092859;28;20034;-36
2021/06/24 12:31:24;;;;;;;15.23;8.32;;;22.30;55.40;;;;;;5093834;28;20036;-38
2021/06/24 12:34:02;;;;;;;11.43;8.70;;;21.80;56.60;;;;;;5093066;28;20119;-38
2021/06/24 12:36:35;;;;;;;13.65;8.13;;;21.50;58.20;;;;;;5093646;28;20040;-38
2021/06/24 12:39:01;;;;;;;13.98;8.20;;;21.30;59.40;;;;;;5093146;28;20020;-38
2021/06/24 12:41:30;;;;;;;11.48;7.90;;;21.30;59.70;;;;;;5094063;28;20509;-37
2021/06/24 12:44:03;;;;;;;10.63;7.90;;;21.30;59.70;;;;;;5093653;28;20356;-37
2021/06/24 12:46:32;;;;;;;12.68;7.50;;;21.30;59.50;;;;;;5093635;28;20028;-36
2021/06/24 12:49:13;;;;;;;12.13;8.20;;;21.40;59.40;;;;;;5093229;28;20032;-38
2021/06/24 12:51:39;;;;;;;10.90;7.22;;;21.50;58.10;;;;;;5074741;28;20153;-37